createdAt,value
2022-11-30T00:00:41.017Z,23.80
2022-11-30T00:03:08.591Z,27.77
2022-11-30T00:05:35.255Z,28.30
2022-11-30T00:08:01.866Z,28.42
2022-11-30T00:10:28.465Z,33.75
2022-11-30T00:12:55.159Z,22.65
2022-11-30T00:15:21.804Z,25.58
2022-11-30T00:17:48.481Z,20.50
2022-11-30T00:20:15.871Z,26.02
2022-11-30T00:22:42.991Z,17.50
2022-11-30T00:25:10.037Z,15.98
2022-11-30T00:27:36.722Z,18.00
2022-11-30T00:30:03.920Z,16.90
2022-11-30T00:32:30.474Z,14.55
2022-11-30T00:34:57.071Z,17.13
2022-11-30T00:37:23.657Z,17.58
2022-11-30T00:39:50.247Z,15.27
2022-11-30T00:42:16.896Z,15.32
2022-11-30T00:44:43.519Z,21.15
2022-11-30T00:47:10.135Z,14.90
2022-11-30T00:49:36.725Z,13.48
2022-11-30T00:52:03.738Z,14.85
2022-11-30T00:54:30.355Z,13.75
2022-11-30T00:56:57.017Z,14.73
2022-11-30T00:59:23.626Z,15.18
2022-11-30T01:01:50.259Z,18.58
2022-11-30T01:04:16.858Z,15.93
2022-11-30T01:06:43.438Z,16.60
2022-11-30T01:09:10.077Z,20.27
2022-11-30T01:11:36.704Z,16.98
2022-11-30T01:14:03.410Z,18.20
2022-11-30T01:16:32.730Z,17.33
2022-11-30T01:19:00.038Z,13.98
2022-11-30T01:21:29.326Z,15.57
2022-11-30T01:23:57.415Z,16.17
2022-11-30T01:26:25.193Z,16.00
2022-11-30T01:28:54.570Z,15.00
2022-11-30T01:31:24.796Z,16.55
2022-11-30T01:33:56.155Z,19.23
2022-11-30T01:36:26.360Z,18.02
2022-11-30T01:38:57.296Z,19.38
2022-11-30T01:41:28.358Z,16.95
2022-11-30T01:43:58.232Z,21.38
2022-11-30T01:46:46.678Z,15.15
2022-11-30T01:49:18.329Z,23.40
2022-11-30T01:51:51.869Z,19.10
2022-11-30T01:54:23.265Z,18.50
2022-11-30T01:56:55.913Z,15.70
2022-11-30T01:59:24.765Z,17.33
2022-11-30T02:01:54.023Z,18.90
2022-11-30T02:04:28.824Z,20.05
2022-11-30T02:06:57.670Z,24.42
2022-11-30T02:09:26.832Z,22.67
2022-11-30T02:11:53.988Z,20.15
2022-11-30T02:29:23.337Z,23.95
2022-11-30T02:32:15.409Z,22.02
2022-11-30T02:34:44.097Z,18.35
2022-11-30T02:37:13.863Z,18.70
2022-11-30T02:39:40.483Z,23.75
2022-11-30T02:42:12.679Z,22.52
2022-11-30T02:44:41.876Z,19.05
2022-11-30T02:52:26.777Z,25.05
2022-11-30T02:54:59.235Z,25.33
2022-11-30T02:57:25.825Z,28.90
2022-11-30T02:59:52.947Z,21.17
2022-11-30T03:02:19.549Z,24.50
2022-11-30T03:04:46.385Z,23.92
2022-11-30T03:07:13.168Z,25.23
2022-11-30T03:09:39.810Z,22.33
2022-11-30T03:12:06.575Z,27.80
2022-11-30T03:14:33.192Z,33.53
2022-11-30T03:16:59.769Z,24.70
2022-11-30T03:19:26.417Z,29.33
2022-11-30T03:21:52.992Z,29.38
2022-11-30T03:24:19.577Z,24.25
2022-11-30T03:26:46.278Z,25.83
2022-11-30T03:29:12.856Z,33.92
2022-11-30T03:31:39.448Z,29.58
2022-11-30T03:34:06.004Z,22.60
2022-11-30T03:36:32.577Z,26.70
2022-11-30T03:38:59.174Z,27.58
2022-11-30T03:41:25.820Z,27.60
2022-11-30T03:43:52.385Z,23.05
2022-11-30T03:46:19.009Z,25.35
2022-11-30T03:48:45.962Z,26.60
2022-11-30T03:51:13.326Z,31.20
2022-11-30T03:53:40.892Z,27.42
2022-11-30T03:56:09.546Z,25.55
2022-11-30T03:58:36.676Z,24.95
2022-11-30T04:01:24.532Z,21.35
2022-11-30T04:03:52.305Z,23.67
2022-11-30T04:06:19.306Z,25.52
2022-11-30T04:08:46.541Z,26.88
2022-11-30T04:11:13.396Z,25.88
2022-11-30T04:13:40.679Z,22.30
2022-11-30T04:16:08.310Z,27.00
2022-11-30T04:18:36.467Z,26.48
2022-11-30T04:21:03.970Z,25.67
2022-11-30T04:23:33.457Z,28.92
2022-11-30T04:26:00.041Z,31.48
2022-11-30T04:28:26.619Z,23.98
2022-11-30T04:30:54.340Z,27.88
2022-11-30T04:33:21.133Z,27.77
2022-11-30T04:35:51.591Z,22.67
2022-11-30T04:40:44.803Z,23.20
2022-11-30T04:43:12.137Z,25.13
2022-11-30T04:45:39.236Z,27.42
2022-11-30T04:48:06.824Z,23.77
2022-11-30T04:50:33.711Z,27.33
2022-11-30T04:53:00.448Z,31.40
2022-11-30T04:55:27.061Z,28.90
2022-11-30T04:57:53.714Z,29.60
2022-11-30T05:00:20.818Z,28.70
2022-11-30T05:02:52.532Z,34.65
2022-11-30T05:05:20.200Z,32.60
2022-11-30T05:07:51.471Z,32.00
2022-11-30T05:10:18.269Z,33.28
2022-11-30T05:12:45.368Z,32.28
2022-11-30T05:15:12.373Z,33.50
2022-11-30T05:17:39.674Z,35.97
2022-11-30T05:20:06.982Z,38.40
2022-11-30T05:22:35.221Z,41.67
2022-11-30T05:25:02.145Z,48.38
2022-11-30T05:27:28.850Z,37.38
2022-11-30T05:29:55.442Z,41.20
2022-11-30T05:32:22.040Z,32.42
2022-11-30T05:34:52.209Z,47.65
2022-11-30T05:37:19.876Z,45.47
2022-11-30T05:39:46.559Z,39.15
2022-11-30T05:42:13.139Z,36.47
2022-11-30T05:44:39.762Z,51.67
2022-11-30T05:47:06.712Z,49.13
2022-11-30T05:49:33.348Z,53.65
2022-11-30T05:51:59.921Z,52.03
2022-11-30T05:54:26.482Z,36.92
2022-11-30T05:56:55.083Z,52.88
2022-11-30T05:59:22.623Z,41.80
2022-11-30T06:01:51.397Z,51.97
2022-11-30T06:04:18.041Z,51.35
2022-11-30T06:06:44.596Z,40.63
2022-11-30T06:09:11.209Z,44.75
2022-11-30T06:11:37.764Z,59.25
2022-11-30T06:14:04.425Z,50.05
2022-11-30T06:16:30.999Z,58.10
2022-11-30T06:18:57.744Z,55.03
2022-11-30T06:21:25.011Z,95.47
2022-11-30T06:23:52.520Z,88.47
2022-11-30T06:26:19.124Z,115.13
2022-11-30T06:28:48.367Z,51.15
2022-11-30T06:31:15.600Z,73.57
2022-11-30T06:33:42.281Z,71.60
2022-11-30T06:36:09.261Z,80.70
2022-11-30T06:38:35.845Z,83.85
2022-11-30T06:41:08.628Z,114.03
2022-11-30T06:43:36.829Z,127.22
2022-11-30T06:46:04.730Z,133.50
2022-11-30T06:48:31.623Z,114.70
2022-11-30T06:50:58.955Z,138.27
2022-11-30T06:53:25.997Z,110.00
2022-11-30T06:55:53.473Z,130.82
2022-11-30T06:58:20.032Z,113.63
2022-11-30T07:00:46.775Z,78.00
2022-11-30T07:03:14.298Z,129.55
2022-11-30T07:05:44.381Z,49.53
2022-11-30T07:08:12.278Z,128.82
2022-11-30T07:10:41.223Z,119.22
2022-11-30T07:13:11.208Z,126.80
2022-11-30T07:15:39.099Z,124.80
2022-11-30T07:18:05.978Z,73.43
2022-11-30T07:20:33.141Z,48.00
2022-11-30T07:23:19.844Z,44.55
2022-11-30T07:26:06.360Z,47.13
2022-11-30T07:28:36.097Z,50.22
2022-11-30T07:31:16.383Z,44.28
2022-11-30T07:33:43.675Z,51.47
2022-11-30T07:36:10.619Z,49.15
2022-11-30T07:38:38.265Z,43.38
2022-11-30T07:41:05.162Z,52.42
2022-11-30T07:43:32.101Z,40.88
2022-11-30T07:45:59.136Z,45.78
2022-11-30T07:48:25.782Z,51.10
2022-11-30T07:50:52.457Z,51.75
2022-11-30T07:53:19.045Z,44.83
2022-11-30T07:55:45.908Z,42.10
2022-11-30T07:58:17.097Z,41.25
2022-11-30T08:00:44.237Z,38.80
2022-11-30T08:03:10.960Z,44.88
2022-11-30T08:05:37.512Z,43.58
2022-11-30T08:08:04.189Z,38.10
2022-11-30T08:10:30.785Z,39.17
2022-11-30T08:12:57.370Z,34.80
2022-11-30T08:15:29.183Z,41.22
2022-11-30T08:18:05.180Z,40.40
2022-11-30T08:20:31.797Z,44.97
2022-11-30T08:22:58.873Z,43.67
2022-11-30T08:25:25.479Z,40.00
2022-11-30T08:27:52.043Z,28.48
2022-11-30T08:30:18.713Z,34.75
2022-11-30T08:32:45.260Z,34.30
2022-11-30T08:35:11.850Z,42.42
2022-11-30T08:37:38.913Z,35.90
2022-11-30T08:40:06.251Z,39.30
2022-11-30T08:42:32.835Z,48.80
2022-11-30T08:44:59.767Z,39.78
2022-11-30T08:47:26.720Z,36.05
2022-11-30T08:49:53.345Z,41.58
2022-11-30T08:52:20.037Z,31.48
2022-11-30T08:54:48.669Z,42.13
2022-11-30T08:57:17.650Z,40.47
2022-11-30T08:59:44.769Z,42.72
2022-11-30T09:02:13.449Z,33.10
2022-11-30T09:04:40.025Z,47.00
2022-11-30T09:07:06.717Z,40.85
2022-11-30T09:09:33.311Z,49.28
2022-11-30T09:11:59.895Z,32.60
2022-11-30T09:14:26.631Z,42.75
2022-11-30T09:16:54.424Z,40.95
2022-11-30T09:19:21.499Z,40.47
2022-11-30T09:21:51.872Z,40.00
2022-11-30T09:24:19.451Z,41.60
2022-11-30T09:26:45.989Z,46.22
2022-11-30T09:29:12.590Z,38.72
2022-11-30T09:31:39.213Z,51.03
2022-11-30T09:34:05.792Z,38.28
2022-11-30T09:36:34.019Z,47.25
2022-11-30T09:39:00.892Z,44.22
2022-11-30T09:44:20.036Z,37.72
2022-11-30T09:46:53.272Z,42.05
2022-11-30T09:49:27.517Z,42.95
2022-11-30T09:51:58.636Z,25.73
2022-11-30T09:54:36.149Z,33.80
2022-11-30T09:57:18.718Z,36.70
2022-11-30T09:59:53.497Z,30.33
2022-11-30T10:02:22.494Z,25.17
2022-11-30T10:04:49.783Z,28.70
2022-11-30T10:07:49.564Z,26.58
2022-11-30T10:27:12.491Z,27.10
2022-11-30T10:29:41.983Z,19.30
2022-11-30T10:34:55.023Z,17.63
2022-11-30T10:37:29.017Z,18.42
2022-11-30T10:45:29.222Z,18.35
2022-11-30T10:48:03.855Z,17.98
2022-11-30T10:50:31.620Z,25.10
2022-11-30T10:53:00.279Z,18.20
2022-11-30T10:55:31.517Z,21.98
2022-11-30T10:58:05.251Z,23.98
2022-11-30T11:00:32.532Z,23.83
2022-11-30T11:02:59.181Z,21.85
2022-11-30T11:05:29.420Z,17.35
2022-11-30T11:13:36.680Z,26.95
2022-11-30T11:16:04.909Z,20.52
2022-11-30T11:18:33.592Z,21.05
2022-11-30T11:21:18.763Z,20.75
2022-11-30T11:23:47.389Z,22.80
2022-11-30T11:28:56.276Z,17.52
2022-11-30T11:31:44.291Z,14.40
2022-11-30T11:34:34.555Z,18.02
2022-11-30T11:37:33.934Z,19.52
2022-11-30T11:42:45.754Z,16.17
2022-11-30T11:45:30.851Z,18.58
2022-11-30T11:48:01.529Z,15.15
2022-11-30T11:51:05.590Z,18.27
2022-11-30T11:53:38.044Z,21.85
2022-11-30T11:56:23.810Z,15.77
2022-11-30T12:06:53.015Z,17.10
2022-11-30T12:09:27.472Z,15.07
2022-11-30T12:11:54.082Z,20.08
2022-11-30T12:14:20.667Z,14.38
2022-11-30T12:19:54.579Z,19.65
2022-11-30T12:28:21.618Z,15.63
2022-11-30T12:39:15.080Z,17.23
2022-11-30T12:41:50.906Z,13.80
2022-11-30T12:44:45.253Z,9.93
2022-11-30T13:04:04.407Z,15.93
2022-11-30T13:06:41.064Z,16.63
2022-11-30T13:11:58.154Z,18.00
2022-11-30T13:14:27.183Z,14.95
2022-11-30T13:17:01.493Z,17.60
2022-11-30T13:22:17.462Z,18.65
2022-11-30T13:24:52.235Z,17.40
2022-11-30T13:27:26.559Z,16.20
2022-11-30T13:33:00.069Z,19.55
2022-11-30T13:41:05.546Z,17.55
2022-11-30T13:43:43.181Z,17.40
2022-11-30T13:48:47.670Z,17.63
2022-11-30T13:51:34.651Z,18.73
2022-11-30T13:59:56.407Z,16.58
2022-11-30T14:18:31.574Z,15.82
2022-11-30T14:21:04.522Z,14.52
2022-11-30T14:26:13.473Z,16.20
2022-11-30T14:28:50.375Z,15.52
2022-11-30T14:31:22.270Z,13.68
2022-11-30T14:36:35.589Z,16.40
2022-11-30T14:39:02.430Z,12.80
2022-11-30T14:41:30.960Z,15.10
2022-11-30T14:44:03.470Z,16.27
2022-11-30T14:46:31.412Z,10.70
2022-11-30T14:51:48.290Z,13.77
2022-11-30T14:54:30.913Z,14.07
2022-11-30T14:57:09.134Z,13.45
2022-11-30T15:04:57.939Z,12.85
2022-11-30T15:07:26.436Z,11.13
2022-11-30T15:10:01.753Z,12.25
2022-11-30T15:12:28.442Z,13.68
2022-11-30T15:15:15.378Z,13.43
2022-11-30T15:17:47.244Z,13.63
2022-11-30T15:20:28.867Z,13.63
2022-11-30T15:22:58.501Z,13.57
2022-11-30T15:25:34.070Z,13.32
2022-11-30T15:28:01.455Z,13.35
2022-11-30T15:30:28.540Z,14.63
2022-11-30T15:32:57.597Z,15.18
2022-11-30T15:35:38.798Z,15.55
2022-11-30T15:38:19.480Z,15.80
2022-11-30T15:40:51.829Z,14.85
2022-11-30T15:43:23.744Z,15.20
2022-11-30T15:45:57.212Z,16.45
2022-11-30T15:48:35.787Z,20.75
2022-11-30T15:51:02.660Z,13.90
2022-11-30T15:53:50.098Z,20.58
2022-11-30T15:56:26.995Z,15.82
2022-11-30T16:05:14.474Z,17.50
2022-11-30T16:08:01.321Z,15.02
2022-11-30T16:10:35.566Z,15.68
2022-11-30T16:13:02.664Z,17.00
2022-11-30T16:15:32.761Z,15.77
2022-11-30T16:18:13.584Z,17.50
2022-11-30T16:20:42.786Z,16.90
2022-11-30T16:23:15.146Z,19.15
2022-11-30T16:25:43.063Z,17.65
2022-11-30T16:28:11.397Z,17.95
2022-11-30T16:30:38.738Z,14.95
2022-11-30T16:33:05.804Z,18.08
2022-11-30T16:35:57.150Z,17.88
2022-11-30T16:38:24.914Z,17.67
2022-11-30T16:40:54.036Z,20.63
2022-11-30T16:43:20.846Z,19.35
2022-11-30T16:45:50.521Z,17.15
2022-11-30T16:48:17.812Z,16.67
2022-11-30T16:50:44.904Z,17.92
2022-11-30T16:53:15.722Z,20.55
2022-11-30T16:55:42.540Z,18.00
2022-11-30T16:58:09.122Z,18.02
2022-11-30T17:00:36.052Z,21.25
2022-11-30T17:03:16.665Z,21.48
2022-11-30T17:05:43.240Z,21.58
2022-11-30T17:08:10.682Z,14.75
2022-11-30T17:10:38.642Z,20.00
2022-11-30T17:13:05.977Z,18.42
2022-11-30T17:15:32.596Z,19.25
2022-11-30T17:17:59.465Z,19.92
2022-11-30T17:20:27.867Z,21.80
2022-11-30T17:22:54.453Z,16.40
2022-11-30T17:25:22.561Z,21.00
2022-11-30T17:27:49.997Z,19.30
2022-11-30T17:30:19.548Z,20.55
2022-11-30T17:32:46.725Z,24.65
2022-11-30T17:35:14.523Z,20.88
2022-11-30T17:37:41.062Z,19.15
2022-11-30T17:40:08.814Z,19.30
2022-11-30T17:42:35.364Z,19.08
2022-11-30T17:45:01.873Z,19.88
2022-11-30T17:47:28.458Z,21.60
2022-11-30T17:49:55.112Z,19.50
2022-11-30T17:52:21.675Z,23.77
2022-11-30T17:54:48.488Z,23.27
2022-11-30T17:57:15.130Z,22.17
2022-11-30T17:59:41.678Z,21.17
2022-11-30T18:02:11.743Z,23.45
2022-11-30T18:04:38.374Z,21.02
2022-11-30T18:07:04.939Z,22.05
2022-11-30T18:09:37.830Z,22.45
2022-11-30T18:12:07.787Z,23.75
2022-11-30T18:14:34.359Z,22.35
2022-11-30T18:17:00.949Z,23.85
2022-11-30T18:19:28.151Z,30.23
2022-11-30T18:21:55.549Z,24.63
2022-11-30T18:24:25.193Z,23.77
2022-11-30T18:26:52.664Z,23.00
2022-11-30T18:29:19.876Z,23.40
2022-11-30T18:31:48.495Z,20.75
2022-11-30T18:34:15.467Z,19.17
2022-11-30T18:36:42.061Z,23.85
2022-11-30T18:39:08.883Z,27.58
2022-11-30T18:41:35.635Z,31.88
2022-11-30T18:44:02.194Z,36.20
2022-11-30T18:46:28.773Z,29.98
2022-11-30T18:48:56.425Z,33.08
2022-11-30T18:51:26.148Z,31.42
2022-11-30T18:53:59.746Z,95.47
2022-11-30T18:56:28.877Z,63.58
2022-11-30T18:58:57.950Z,32.50
2022-11-30T19:01:25.711Z,34.70
2022-11-30T19:03:54.788Z,27.13
2022-11-30T19:06:21.831Z,27.48
2022-11-30T19:08:48.779Z,24.38
2022-11-30T19:11:16.861Z,21.80
2022-11-30T19:13:44.570Z,23.35
2022-11-30T19:16:14.639Z,22.90
2022-11-30T19:18:41.413Z,21.35
2022-11-30T19:21:10.058Z,21.10
2022-11-30T19:23:38.078Z,18.38
2022-11-30T19:26:06.782Z,17.25
2022-11-30T19:28:35.314Z,16.55
2022-11-30T19:31:09.365Z,16.38
2022-11-30T19:33:38.362Z,19.55
2022-11-30T19:36:06.685Z,15.07
2022-11-30T19:38:33.456Z,14.40
2022-11-30T19:41:04.919Z,16.45
2022-11-30T19:43:31.497Z,13.63
2022-11-30T19:46:05.644Z,17.48
2022-11-30T19:48:33.108Z,19.20
2022-11-30T19:51:00.008Z,19.67
2022-11-30T19:53:28.117Z,15.40
2022-11-30T19:55:57.958Z,17.67
2022-11-30T19:58:24.796Z,14.75
2022-11-30T20:00:51.382Z,17.00
2022-11-30T20:03:18.849Z,17.67
2022-11-30T20:05:49.295Z,13.60
2022-11-30T20:08:16.191Z,16.42
2022-11-30T20:10:42.819Z,18.13
2022-11-30T20:13:10.981Z,14.90
2022-11-30T20:15:39.464Z,20.33
2022-11-30T20:18:07.500Z,19.35
2022-11-30T20:20:34.847Z,20.58
2022-11-30T20:23:01.954Z,12.75
2022-11-30T20:25:31.107Z,17.25
2022-11-30T20:27:57.959Z,18.92
2022-11-30T20:32:51.683Z,18.55
2022-11-30T20:35:18.255Z,19.60
2022-11-30T20:37:44.845Z,18.20
2022-11-30T20:40:11.850Z,19.17
2022-11-30T20:42:38.504Z,19.50
2022-11-30T20:45:05.539Z,16.05
2022-11-30T20:47:35.341Z,14.52
2022-11-30T20:50:03.016Z,21.30
2022-11-30T20:52:29.655Z,19.20
2022-11-30T20:54:56.183Z,19.05
2022-11-30T20:57:23.269Z,18.67
2022-11-30T20:59:49.852Z,18.73
2022-11-30T21:02:16.567Z,14.77
2022-11-30T21:04:43.228Z,16.67
2022-11-30T21:07:09.734Z,17.27
2022-11-30T21:09:36.275Z,18.15
2022-11-30T21:12:02.921Z,14.15
2022-11-30T21:14:29.468Z,15.13
2022-11-30T21:16:55.989Z,16.95
2022-11-30T21:19:22.564Z,17.60
2022-11-30T21:21:49.123Z,23.50
2022-11-30T21:24:15.718Z,20.92
2022-11-30T21:26:43.582Z,17.38
2022-11-30T21:29:12.838Z,19.65
2022-11-30T21:31:39.800Z,15.45
2022-11-30T21:34:06.666Z,20.55
2022-11-30T21:36:33.671Z,20.83
2022-11-30T21:39:05.953Z,21.30
2022-11-30T21:41:35.412Z,22.92
2022-11-30T21:44:02.849Z,22.20
2022-11-30T21:46:30.078Z,21.25
2022-11-30T21:48:56.848Z,21.63
2022-11-30T21:51:26.176Z,26.17
2022-11-30T21:53:55.039Z,27.02
2022-11-30T21:56:25.625Z,26.55
2022-11-30T21:58:54.010Z,30.98
2022-11-30T22:01:25.491Z,31.67
2022-11-30T22:03:54.042Z,29.48
2022-11-30T22:06:23.353Z,27.30
2022-11-30T22:08:50.305Z,29.70
2022-11-30T22:11:21.460Z,26.88
2022-11-30T22:13:53.038Z,28.25
2022-11-30T22:16:22.034Z,35.70
2022-11-30T22:18:48.998Z,34.60
2022-11-30T22:21:17.812Z,23.20
2022-11-30T22:23:47.366Z,27.63
2022-11-30T22:28:54.934Z,30.02
2022-11-30T22:31:24.020Z,33.38
2022-11-30T22:33:50.934Z,36.65
2022-11-30T22:36:21.831Z,33.10
2022-11-30T22:38:54.223Z,31.55
2022-11-30T22:41:21.003Z,34.63
2022-11-30T22:43:48.134Z,34.65
2022-11-30T22:46:17.864Z,29.50
2022-11-30T22:48:45.488Z,36.67
2022-11-30T22:51:14.733Z,25.25
2022-11-30T22:53:41.823Z,27.25
2022-11-30T22:56:12.971Z,19.73
2022-11-30T22:58:40.936Z,27.83
2022-11-30T23:01:10.555Z,16.55
2022-11-30T23:03:38.105Z,18.52
2022-11-30T23:06:05.520Z,17.17
2022-11-30T23:08:32.283Z,18.60
2022-11-30T23:11:00.131Z,18.55
2022-11-30T23:13:27.608Z,19.55
2022-11-30T23:15:57.504Z,19.23
2022-11-30T23:18:24.649Z,20.23
2022-11-30T23:20:51.215Z,19.38
2022-11-30T23:23:18.348Z,22.58
2022-11-30T23:25:44.953Z,22.85
2022-11-30T23:28:11.512Z,20.23
2022-11-30T23:30:38.054Z,18.10
2022-11-30T23:33:04.739Z,18.13
2022-11-30T23:35:31.315Z,18.45
2022-11-30T23:37:57.868Z,16.67
2022-11-30T23:40:24.400Z,20.27
2022-11-30T23:42:50.986Z,19.77
2022-11-30T23:45:17.619Z,16.77
2022-11-30T23:47:44.173Z,19.95
2022-11-30T23:50:11.167Z,21.83
2022-11-30T23:52:37.813Z,22.08
2022-11-30T23:55:04.765Z,22.27
2022-11-30T23:57:31.313Z,19.63
2022-11-30T23:59:57.877Z,17.27
